Oxford, Maryland
Current Conditions -  °F | °C
As of 11:43 PM on Tuesday 21 Oct 2014 (Local Time) from KESN Reporting Station
Light Rain Light Rain  
Wind Chill: 58°   Ceiling: 4300
Heat Index: 58°   Visibility: 7mi
Dew Point: 58°   Wind: 0mph
Humidity: 100%   Direction: NA
Pressure: 29.91"   Gusts: NA
Location:  38.69°N, 76.17°W
Report Text: KESN 220343Z AUTO 00000KT 7SM -RA BKN043 14/14 A2991 RMK AO2 P0001 T01420142
Loading
Personal Weather Stations






























Interactive Weather Map
Tropical Storm Tracking
New forecast layout! Learn more

10-Day Weather Forecast

Advertisements
Track Severe Weather on mobile